Robijn — PBEJ — position and weather

sailwx.info

Track history (hours):
 
Tides and Currents Weather Stations Pressure Air Temp Water Temp Dewpoint Dewpoint Depression Visibility Wind Speed Wind Dir Waves Ship Positions

Robijn

Last reported at 2015-Jul-30 01:28 UTC. Time now 2015-Jul-31 01:06 UTC.
Position N 57°21' E 017°45'.

Length 90 m; draft 5.3 m.

Type: Cargo ship. MMSI: 245909000.

Date/timePositionNaut miles runAvg speedWind from/ knotsBaromVisibWave heightAir tempDewpointWater temp
2015-Jul-30 01:28N 57°21' E 017°45'10 9.1
2015-Jul-30 00:24N 57°11' E 017°39'138 9.3
2015-Jul-29 09:33N 55°08' E 015°49'1110.2
2015-Jul-29 08:27N 54°58' E 015°37'1010.0
2015-Jul-29 07:24N 54°50' E 015°26'72 9.2
2015-Jul-28 23:33N 53°50' E 014°19'10 9.9
2015-Jul-28 22:33N 53°42' E 014°29'9 9.4
2015-Jul-28 21:33N 53°33' E 014°36'8 7.9
2015-Jul-28 20:33N 53°26' E 014°36'1 1.4
2015-Jul-28 19:34N 53°24' E 014°37'0 0.0
2015-Jul-28 18:34N 53°24' E 014°37'0 0.0
2015-Jul-28 17:34N 53°24' E 014°37'0 0.0
2015-Jul-28 16:34N 53°24' E 014°37'0 0.0
2015-Jul-28 15:34N 53°24' E 014°37'0 0.0
2015-Jul-28 14:34N 53°24' E 014°37'0 0.0
2015-Jul-28 13:34N 53°24' E 014°37'0 0.0
2015-Jul-28 12:34N 53°24' E 014°37'0 0.0
2015-Jul-28 11:34N 53°24' E 014°37'0 0.0
2015-Jul-28 10:34N 53°24' E 014°37'0 0.0
2015-Jul-28 09:34N 53°24' E 014°37'0 0.0
2015-Jul-28 08:34N 53°24' E 014°37'0 0.0
2015-Jul-28 07:34N 53°24' E 014°37'0 0.0
2015-Jul-28 06:34N 53°24' E 014°37'0 0.0
2015-Jul-28 05:34N 53°24' E 014°37'0 0.0
2015-Jul-28 04:34N 53°24' E 014°37'0 0.0
2015-Jul-28 03:34N 53°24' E 014°37'0 0.0
2015-Jul-28 02:33N 53°24' E 014°37'0 0.0
2015-Jul-28 01:34N 53°24' E 014°37'0 0.0
2015-Jul-28 00:34N 53°24' E 014°37'0 0.0
2015-Jul-27 23:34N 53°24' E 014°37'0 0.0
2015-Jul-27 22:34N 53°24' E 014°37'0 0.0
2015-Jul-27 21:34N 53°24' E 014°37'0 0.0
2015-Jul-27 20:34N 53°24' E 014°37'0 0.0
2015-Jul-27 19:33N 53°24' E 014°37'0 0.0
2015-Jul-27 18:34N 53°24' E 014°37'0 0.0
2015-Jul-27 17:33N 53°24' E 014°37'0 0.0
2015-Jul-27 16:34N 53°24' E 014°37'0 0.0
2015-Jul-27 15:33N 53°24' E 014°37'0 0.0
2015-Jul-27 14:33N 53°24' E 014°37'0 0.0
2015-Jul-27 13:33N 53°24' E 014°37'0 0.0
2015-Jul-27 12:30N 53°24' E 014°37'0 0.0
2015-Jul-27 11:33N 53°24' E 014°37'0 0.0
2015-Jul-27 10:33N 53°24' E 014°37'0 0.0
2015-Jul-27 09:33N 53°24' E 014°37'0 0.0
2015-Jul-27 08:33N 53°24' E 014°37'1 0.6
2015-Jul-27 07:34N 53°25' E 014°37'2 1.8
2015-Jul-27 06:32N 53°26' E 014°35'0 0.0
2015-Jul-27 05:32N 53°26' E 014°35'0 0.0
2015-Jul-27 04:32N 53°26' E 014°35'0 0.0
2015-Jul-27 03:32N 53°26' E 014°35'0 0.0
2015-Jul-27 02:32N 53°26' E 014°35'0 0.0
2015-Jul-27 01:32N 53°26' E 014°35'0 0.0
2015-Jul-27 00:32N 53°26' E 014°35'0 0.0
2015-Jul-26 23:32N 53°26' E 014°35'0 0.0
2015-Jul-26 22:32N 53°26' E 014°35'0 0.0
2015-Jul-26 21:32N 53°26' E 014°35'0 0.0
2015-Jul-26 20:32N 53°26' E 014°35'0 0.0
2015-Jul-26 19:32N 53°26' E 014°35'0 0.0
2015-Jul-26 18:32N 53°26' E 014°35'0 0.0
2015-Jul-26 17:32N 53°26' E 014°35'0 0.0
2015-Jul-26 16:32N 53°26' E 014°35'0 0.0
2015-Jul-26 15:32N 53°26' E 014°35'0 0.0
2015-Jul-26 14:32N 53°26' E 014°35'0 0.0
2015-Jul-26 13:32N 53°26' E 014°35'0 0.0
2015-Jul-26 12:32N 53°26' E 014°35'0 0.0
2015-Jul-26 11:32N 53°26' E 014°35'0 0.0
2015-Jul-26 10:32N 53°26' E 014°35'0 0.0
2015-Jul-26 09:32N 53°26' E 014°35'0 0.0
2015-Jul-26 08:32N 53°26' E 014°35'0 0.0
2015-Jul-26 07:32N 53°26' E 014°35'0 0.0
2015-Jul-26 06:32N 53°26' E 014°35'0 0.0
2015-Jul-26 05:32N 53°26' E 014°35'0 0.0
2015-Jul-26 04:32N 53°26' E 014°35'0 0.0
2015-Jul-26 03:32N 53°26' E 014°35'0 0.0
2015-Jul-26 02:32N 53°26' E 014°35'0 0.0
2015-Jul-26 01:32N 53°26' E 014°35'0 0.0
2015-Jul-26 00:32N 53°26' E 014°35'0 0.0
2015-Jul-25 23:32N 53°26' E 014°35'0 0.0
2015-Jul-25 22:29N 53°26' E 014°35'0 0.0
2015-Jul-25 21:32N 53°26' E 014°35'0 0.0
2015-Jul-25 20:32N 53°26' E 014°35'0 0.0
2015-Jul-25 19:32N 53°26' E 014°35'0 0.0
2015-Jul-25 18:32N 53°26' E 014°35'0 0.0
2015-Jul-25 17:32N 53°26' E 014°35'0 0.0
2015-Jul-25 16:32N 53°26' E 014°35'0 0.0
2015-Jul-25 15:32N 53°26' E 014°35'0 0.0
2015-Jul-25 14:32N 53°26' E 014°35'0 0.0
2015-Jul-25 13:32N 53°26' E 014°35'0 0.0
2015-Jul-25 12:32N 53°26' E 014°35'0 0.0
2015-Jul-25 11:32N 53°26' E 014°35'0 0.0
2015-Jul-25 10:32N 53°26' E 014°35'0 0.0
2015-Jul-25 09:32N 53°26' E 014°35'0 0.0
2015-Jul-25 08:32N 53°26' E 014°35'0 0.0
2015-Jul-25 07:32N 53°26' E 014°35'0 0.0
2015-Jul-25 06:32N 53°26' E 014°35'0 0.0
2015-Jul-25 05:32N 53°26' E 014°35'0 0.0
2015-Jul-25 04:32N 53°26' E 014°35'0 0.0
2015-Jul-25 03:32N 53°26' E 014°35'0 0.0
2015-Jul-25 02:32N 53°26' E 014°35'0 0.0
2015-Jul-25 01:32N 53°26' E 014°35'0 0.0
2015-Jul-25 00:32N 53°26' E 014°35'0 0.0
2015-Jul-24 23:32N 53°26' E 014°35'0 0.0
2015-Jul-24 22:32N 53°26' E 014°35'0 0.0
2015-Jul-24 21:32N 53°26' E 014°35'0 0.0
2015-Jul-24 20:32N 53°26' E 014°35'0 0.0
2015-Jul-24 19:32N 53°26' E 014°35'0 0.0
2015-Jul-24 18:32N 53°26' E 014°35'0 0.0
2015-Jul-24 17:32N 53°26' E 014°35'0 0.0
2015-Jul-24 16:26N 53°26' E 014°35'0 0.0
2015-Jul-24 15:32N 53°26' E 014°35'0 0.0
2015-Jul-24 14:32N 53°26' E 014°35'0 0.0
2015-Jul-24 13:32N 53°26' E 014°35'0 0.0
2015-Jul-24 12:32N 53°26' E 014°35'0 0.0
2015-Jul-24 11:32N 53°26' E 014°35'0 0.0
2015-Jul-24 10:32N 53°26' E 014°35'0 0.0
2015-Jul-24 09:32N 53°26' E 014°35'0 0.0
2015-Jul-24 08:32N 53°26' E 014°35'0 0.0
2015-Jul-24 07:32N 53°26' E 014°35'0 0.0
2015-Jul-24 06:32N 53°26' E 014°35'0 0.0
2015-Jul-24 05:32N 53°26' E 014°35'0 0.0
2015-Jul-24 04:32N 53°26' E 014°35'0 0.0
2015-Jul-24 03:32N 53°26' E 014°35'0 0.0
2015-Jul-24 02:32N 53°26' E 014°35'0 0.0
2015-Jul-24 01:32N 53°26' E 014°35'0 0.0
2015-Jul-24 00:32N 53°26' E 014°35'0 0.0
2015-Jul-23 23:29N 53°26' E 014°35'0 0.0
2015-Jul-23 22:32N 53°26' E 014°35'0 0.0
2015-Jul-23 21:32N 53°26' E 014°35'0 0.0
2015-Jul-23 20:32N 53°26' E 014°35'0 0.0
2015-Jul-23 19:32N 53°26' E 014°35'0 0.0
2015-Jul-23 18:32N 53°26' E 014°35'0 0.0
2015-Jul-23 17:32N 53°26' E 014°35'0 0.0
2015-Jul-23 16:32N 53°26' E 014°35'0 0.0
2015-Jul-23 15:32N 53°26' E 014°35'0 0.0
2015-Jul-23 14:32N 53°26' E 014°35'0 0.0
2015-Jul-23 13:32N 53°26' E 014°35'0 0.0
2015-Jul-23 12:32N 53°26' E 014°35'0 0.0
2015-Jul-23 11:32N 53°26' E 014°35'0 0.0
2015-Jul-23 10:32N 53°26' E 014°35'0 0.0
2015-Jul-23 09:32N 53°26' E 014°35'0 0.0
2015-Jul-23 08:32N 53°26' E 014°35'0 0.0
2015-Jul-23 07:32N 53°26' E 014°35'0 0.0
2015-Jul-23 06:32N 53°26' E 014°35'0 0.0
2015-Jul-23 05:32N 53°26' E 014°35'0 0.0
2015-Jul-23 04:32N 53°26' E 014°35'0 0.0
2015-Jul-23 03:32N 53°26' E 014°35'0 0.0
2015-Jul-23 02:32N 53°26' E 014°35'0 0.0
2015-Jul-23 01:32N 53°26' E 014°35'0 0.0
2015-Jul-23 00:32N 53°26' E 014°35'0 0.0
2015-Jul-22 23:32N 53°26' E 014°35'0 0.0
2015-Jul-22 22:32N 53°26' E 014°35'0 0.0
2015-Jul-22 21:32N 53°26' E 014°35'0 0.0
2015-Jul-22 20:32N 53°26' E 014°35'0 0.0
2015-Jul-22 19:32N 53°26' E 014°35'0 0.0
2015-Jul-22 18:32N 53°26' E 014°35'0 0.0
2015-Jul-22 17:32N 53°26' E 014°35'0 0.0
2015-Jul-22 16:32N 53°26' E 014°35'0 0.0
2015-Jul-22 15:32N 53°26' E 014°35'0 0.0
2015-Jul-22 14:32N 53°26' E 014°35'0 0.0
2015-Jul-22 13:32N 53°26' E 014°35'0 0.0
2015-Jul-22 12:32N 53°26' E 014°35'4 4.5
2015-Jul-22 11:34N 53°30' E 014°38'10 9.9
2015-Jul-22 10:33N 53°39' E 014°32'1111.1
2015-Jul-22 09:33N 53°48' E 014°21'80 8.6
2015-Jul-22 00:17N 54°59' E 013°18'910.2
2015-Jul-21 23:26N 55°06' E 013°09'910.3
2015-Jul-21 22:33N 55°12' E 012°57'1110.7
2015-Jul-21 21:34N 55°17' E 012°41'9 9.3
2015-Jul-21 20:34N 55°27' E 012°41'1010.5
2015-Jul-21 19:34N 55°37' E 012°42'1110.7
2015-Jul-21 18:34N 55°48' E 012°40'1010.4
2015-Jul-21 17:34N 55°58' E 012°38'9 9.1
2015-Jul-21 16:33N 56°07' E 012°32'1010.4
2015-Jul-21 15:34N 56°16' E 012°25'1010.1
2015-Jul-21 14:33N 56°26' E 012°30'9 9.5
2015-Jul-21 13:33N 56°34' E 012°41'8 4.0
2015-Jul-21 11:30N 56°39' E 012°51'0 0.0
2015-Jul-21 09:12N 56°39' E 012°51'0 0.0
2015-Jul-21 08:24N 56°39' E 012°51'0 0.0
2015-Jul-21 07:30N 56°39' E 012°52'0 0.0
2015-Jul-21 06:06N 56°39' E 012°51'0 0.0
2015-Jul-21 05:24N 56°39' E 012°51'0 0.0
2015-Jul-21 04:30N 56°39' E 012°51'0 0.0
2015-Jul-21 03:30N 56°39' E 012°51'0 0.0
2015-Jul-21 02:23N 56°39' E 012°51'0 0.0
2015-Jul-21 01:26N 56°39' E 012°51'0 0.0
2015-Jul-20 22:24N 56°39' E 012°51'0 0.0
2015-Jul-20 13:32N 56°39' E 012°51'0 0.0
2015-Jul-20 12:32N 56°39' E 012°51'0 0.0
2015-Jul-20 07:32N 56°39' E 012°51'0 0.0
2015-Jul-20 06:32N 56°39' E 012°51'0 0.0
2015-Jul-20 05:26N 56°39' E 012°51'0 0.1
2015-Jul-20 04:33N 56°39' E 012°51'8 6.4
2015-Jul-20 03:21N 56°40' E 012°38'7 8.3
2015-Jul-20 02:33N 56°45' E 012°29'8 8.2
2015-Jul-20 01:34N 56°51' E 012°19'  
Track history (hours):
 
Tides and Currents Weather Stations Pressure Air Temp Water Temp Dewpoint Dewpoint Depression Visibility Wind Speed Wind Dir Waves Ship Positions

Robijn

Last reported at 2015-Jul-30 01:28 UTC. Time now 2015-Jul-31 01:06 UTC.
Position N 57°21' E 017°45'.

Length 90 m; draft 5.3 m.

Type: Cargo ship. MMSI: 245909000.

Date/timePositionNaut miles runAvg speedWind from/ knotsBaromVisibWave heightAir tempDewpointWater temp
2015-Jul-30 01:28N 57°21' E 017°45'10 9.1
2015-Jul-30 00:24N 57°11' E 017°39'138 9.3
2015-Jul-29 09:33N 55°08' E 015°49'1110.2
2015-Jul-29 08:27N 54°58' E 015°37'1010.0
2015-Jul-29 07:24N 54°50' E 015°26'72 9.2
2015-Jul-28 23:33N 53°50' E 014°19'10 9.9
2015-Jul-28 22:33N 53°42' E 014°29'9 9.4
2015-Jul-28 21:33N 53°33' E 014°36'8 7.9
2015-Jul-28 20:33N 53°26' E 014°36'1 1.4
2015-Jul-28 19:34N 53°24' E 014°37'0 0.0
2015-Jul-28 18:34N 53°24' E 014°37'0 0.0
2015-Jul-28 17:34N 53°24' E 014°37'0 0.0
2015-Jul-28 16:34N 53°24' E 014°37'0 0.0
2015-Jul-28 15:34N 53°24' E 014°37'0 0.0
2015-Jul-28 14:34N 53°24' E 014°37'0 0.0
2015-Jul-28 13:34N 53°24' E 014°37'0 0.0
2015-Jul-28 12:34N 53°24' E 014°37'0 0.0
2015-Jul-28 11:34N 53°24' E 014°37'0 0.0
2015-Jul-28 10:34N 53°24' E 014°37'0 0.0
2015-Jul-28 09:34N 53°24' E 014°37'0 0.0
2015-Jul-28 08:34N 53°24' E 014°37'0 0.0
2015-Jul-28 07:34N 53°24' E 014°37'0 0.0
2015-Jul-28 06:34N 53°24' E 014°37'0 0.0
2015-Jul-28 05:34N 53°24' E 014°37'0 0.0
2015-Jul-28 04:34N 53°24' E 014°37'0 0.0
2015-Jul-28 03:34N 53°24' E 014°37'0 0.0
2015-Jul-28 02:33N 53°24' E 014°37'0 0.0
2015-Jul-28 01:34N 53°24' E 014°37'0 0.0
2015-Jul-28 00:34N 53°24' E 014°37'0 0.0
2015-Jul-27 23:34N 53°24' E 014°37'0 0.0
2015-Jul-27 22:34N 53°24' E 014°37'0 0.0
2015-Jul-27 21:34N 53°24' E 014°37'0 0.0
2015-Jul-27 20:34N 53°24' E 014°37'0 0.0
2015-Jul-27 19:33N 53°24' E 014°37'0 0.0
2015-Jul-27 18:34N 53°24' E 014°37'0 0.0
2015-Jul-27 17:33N 53°24' E 014°37'0 0.0
2015-Jul-27 16:34N 53°24' E 014°37'0 0.0
2015-Jul-27 15:33N 53°24' E 014°37'0 0.0
2015-Jul-27 14:33N 53°24' E 014°37'0 0.0
2015-Jul-27 13:33N 53°24' E 014°37'0 0.0
2015-Jul-27 12:30N 53°24' E 014°37'0 0.0
2015-Jul-27 11:33N 53°24' E 014°37'0 0.0
2015-Jul-27 10:33N 53°24' E 014°37'0 0.0
2015-Jul-27 09:33N 53°24' E 014°37'0 0.0
2015-Jul-27 08:33N 53°24' E 014°37'1 0.6
2015-Jul-27 07:34N 53°25' E 014°37'2 1.8
2015-Jul-27 06:32N 53°26' E 014°35'0 0.0
2015-Jul-27 05:32N 53°26' E 014°35'0 0.0
2015-Jul-27 04:32N 53°26' E 014°35'0 0.0
2015-Jul-27 03:32N 53°26' E 014°35'0 0.0
2015-Jul-27 02:32N 53°26' E 014°35'0 0.0
2015-Jul-27 01:32N 53°26' E 014°35'0 0.0
2015-Jul-27 00:32N 53°26' E 014°35'0 0.0
2015-Jul-26 23:32N 53°26' E 014°35'0 0.0
2015-Jul-26 22:32N 53°26' E 014°35'0 0.0
2015-Jul-26 21:32N 53°26' E 014°35'0 0.0
2015-Jul-26 20:32N 53°26' E 014°35'0 0.0
2015-Jul-26 19:32N 53°26' E 014°35'0 0.0
2015-Jul-26 18:32N 53°26' E 014°35'0 0.0
2015-Jul-26 17:32N 53°26' E 014°35'0 0.0
2015-Jul-26 16:32N 53°26' E 014°35'0 0.0
2015-Jul-26 15:32N 53°26' E 014°35'0 0.0
2015-Jul-26 14:32N 53°26' E 014°35'0 0.0
2015-Jul-26 13:32N 53°26' E 014°35'0 0.0
2015-Jul-26 12:32N 53°26' E 014°35'0 0.0
2015-Jul-26 11:32N 53°26' E 014°35'0 0.0
2015-Jul-26 10:32N 53°26' E 014°35'0 0.0
2015-Jul-26 09:32N 53°26' E 014°35'0 0.0
2015-Jul-26 08:32N 53°26' E 014°35'0 0.0
2015-Jul-26 07:32N 53°26' E 014°35'0 0.0
2015-Jul-26 06:32N 53°26' E 014°35'0 0.0
2015-Jul-26 05:32N 53°26' E 014°35'0 0.0
2015-Jul-26 04:32N 53°26' E 014°35'0 0.0
2015-Jul-26 03:32N 53°26' E 014°35'0 0.0
2015-Jul-26 02:32N 53°26' E 014°35'0 0.0
2015-Jul-26 01:32N 53°26' E 014°35'0 0.0
2015-Jul-26 00:32N 53°26' E 014°35'0 0.0
2015-Jul-25 23:32N 53°26' E 014°35'0 0.0
2015-Jul-25 22:29N 53°26' E 014°35'0 0.0
2015-Jul-25 21:32N 53°26' E 014°35'0 0.0
2015-Jul-25 20:32N 53°26' E 014°35'0 0.0
2015-Jul-25 19:32N 53°26' E 014°35'0 0.0
2015-Jul-25 18:32N 53°26' E 014°35'0 0.0
2015-Jul-25 17:32N 53°26' E 014°35'0 0.0
2015-Jul-25 16:32N 53°26' E 014°35'0 0.0
2015-Jul-25 15:32N 53°26' E 014°35'0 0.0
2015-Jul-25 14:32N 53°26' E 014°35'0 0.0
2015-Jul-25 13:32N 53°26' E 014°35'0 0.0
2015-Jul-25 12:32N 53°26' E 014°35'0 0.0
2015-Jul-25 11:32N 53°26' E 014°35'0 0.0
2015-Jul-25 10:32N 53°26' E 014°35'0 0.0
2015-Jul-25 09:32N 53°26' E 014°35'0 0.0
2015-Jul-25 08:32N 53°26' E 014°35'0 0.0
2015-Jul-25 07:32N 53°26' E 014°35'0 0.0
2015-Jul-25 06:32N 53°26' E 014°35'0 0.0
2015-Jul-25 05:32N 53°26' E 014°35'0 0.0
2015-Jul-25 04:32N 53°26' E 014°35'0 0.0
2015-Jul-25 03:32N 53°26' E 014°35'0 0.0
2015-Jul-25 02:32N 53°26' E 014°35'0 0.0
2015-Jul-25 01:32N 53°26' E 014°35'0 0.0
2015-Jul-25 00:32N 53°26' E 014°35'0 0.0
2015-Jul-24 23:32N 53°26' E 014°35'0 0.0
2015-Jul-24 22:32N 53°26' E 014°35'0 0.0
2015-Jul-24 21:32N 53°26' E 014°35'0 0.0
2015-Jul-24 20:32N 53°26' E 014°35'0 0.0
2015-Jul-24 19:32N 53°26' E 014°35'0 0.0
2015-Jul-24 18:32N 53°26' E 014°35'0 0.0
2015-Jul-24 17:32N 53°26' E 014°35'0 0.0
2015-Jul-24 16:26N 53°26' E 014°35'0 0.0
2015-Jul-24 15:32N 53°26' E 014°35'0 0.0
2015-Jul-24 14:32N 53°26' E 014°35'0 0.0
2015-Jul-24 13:32N 53°26' E 014°35'0 0.0
2015-Jul-24 12:32N 53°26' E 014°35'0 0.0
2015-Jul-24 11:32N 53°26' E 014°35'0 0.0
2015-Jul-24 10:32N 53°26' E 014°35'0 0.0
2015-Jul-24 09:32N 53°26' E 014°35'0 0.0
2015-Jul-24 08:32N 53°26' E 014°35'0 0.0
2015-Jul-24 07:32N 53°26' E 014°35'0 0.0
2015-Jul-24 06:32N 53°26' E 014°35'0 0.0
2015-Jul-24 05:32N 53°26' E 014°35'0 0.0
2015-Jul-24 04:32N 53°26' E 014°35'0 0.0
2015-Jul-24 03:32N 53°26' E 014°35'0 0.0
2015-Jul-24 02:32N 53°26' E 014°35'0 0.0
2015-Jul-24 01:32N 53°26' E 014°35'0 0.0
2015-Jul-24 00:32N 53°26' E 014°35'0 0.0
2015-Jul-23 23:29N 53°26' E 014°35'0 0.0
2015-Jul-23 22:32N 53°26' E 014°35'0 0.0
2015-Jul-23 21:32N 53°26' E 014°35'0 0.0
2015-Jul-23 20:32N 53°26' E 014°35'0 0.0
2015-Jul-23 19:32N 53°26' E 014°35'0 0.0
2015-Jul-23 18:32N 53°26' E 014°35'0 0.0
2015-Jul-23 17:32N 53°26' E 014°35'0 0.0
2015-Jul-23 16:32N 53°26' E 014°35'0 0.0
2015-Jul-23 15:32N 53°26' E 014°35'0 0.0
2015-Jul-23 14:32N 53°26' E 014°35'0 0.0
2015-Jul-23 13:32N 53°26' E 014°35'0 0.0
2015-Jul-23 12:32N 53°26' E 014°35'0 0.0
2015-Jul-23 11:32N 53°26' E 014°35'0 0.0
2015-Jul-23 10:32N 53°26' E 014°35'0 0.0
2015-Jul-23 09:32N 53°26' E 014°35'0 0.0
2015-Jul-23 08:32N 53°26' E 014°35'0 0.0
2015-Jul-23 07:32N 53°26' E 014°35'0 0.0
2015-Jul-23 06:32N 53°26' E 014°35'0 0.0
2015-Jul-23 05:32N 53°26' E 014°35'0 0.0
2015-Jul-23 04:32N 53°26' E 014°35'0 0.0
2015-Jul-23 03:32N 53°26' E 014°35'0 0.0
2015-Jul-23 02:32N 53°26' E 014°35'0 0.0
2015-Jul-23 01:32N 53°26' E 014°35'0 0.0
2015-Jul-23 00:32N 53°26' E 014°35'0 0.0
2015-Jul-22 23:32N 53°26' E 014°35'0 0.0
2015-Jul-22 22:32N 53°26' E 014°35'0 0.0
2015-Jul-22 21:32N 53°26' E 014°35'0 0.0
2015-Jul-22 20:32N 53°26' E 014°35'0 0.0
2015-Jul-22 19:32N 53°26' E 014°35'0 0.0
2015-Jul-22 18:32N 53°26' E 014°35'0 0.0
2015-Jul-22 17:32N 53°26' E 014°35'0 0.0
2015-Jul-22 16:32N 53°26' E 014°35'0 0.0
2015-Jul-22 15:32N 53°26' E 014°35'0 0.0
2015-Jul-22 14:32N 53°26' E 014°35'0 0.0
2015-Jul-22 13:32N 53°26' E 014°35'0 0.0
2015-Jul-22 12:32N 53°26' E 014°35'4 4.5
2015-Jul-22 11:34N 53°30' E 014°38'10 9.9
2015-Jul-22 10:33N 53°39' E 014°32'1111.1
2015-Jul-22 09:33N 53°48' E 014°21'80 8.6
2015-Jul-22 00:17N 54°59' E 013°18'910.2
2015-Jul-21 23:26N 55°06' E 013°09'910.3
2015-Jul-21 22:33N 55°12' E 012°57'1110.7
2015-Jul-21 21:34N 55°17' E 012°41'9 9.3
2015-Jul-21 20:34N 55°27' E 012°41'1010.5
2015-Jul-21 19:34N 55°37' E 012°42'1110.7
2015-Jul-21 18:34N 55°48' E 012°40'1010.4
2015-Jul-21 17:34N 55°58' E 012°38'9 9.1
2015-Jul-21 16:33N 56°07' E 012°32'1010.4
2015-Jul-21 15:34N 56°16' E 012°25'1010.1
2015-Jul-21 14:33N 56°26' E 012°30'9 9.5
2015-Jul-21 13:33N 56°34' E 012°41'8 4.0
2015-Jul-21 11:30N 56°39' E 012°51'0 0.0
2015-Jul-21 09:12N 56°39' E 012°51'0 0.0
2015-Jul-21 08:24N 56°39' E 012°51'0 0.0
2015-Jul-21 07:30N 56°39' E 012°52'0 0.0
2015-Jul-21 06:06N 56°39' E 012°51'0 0.0
2015-Jul-21 05:24N 56°39' E 012°51'0 0.0
2015-Jul-21 04:30N 56°39' E 012°51'0 0.0
2015-Jul-21 03:30N 56°39' E 012°51'0 0.0
2015-Jul-21 02:23N 56°39' E 012°51'0 0.0
2015-Jul-21 01:26N 56°39' E 012°51'0 0.0
2015-Jul-20 22:24N 56°39' E 012°51'0 0.0
2015-Jul-20 13:32N 56°39' E 012°51'0 0.0
2015-Jul-20 12:32N 56°39' E 012°51'0 0.0
2015-Jul-20 07:32N 56°39' E 012°51'0 0.0
2015-Jul-20 06:32N 56°39' E 012°51'0 0.0
2015-Jul-20 05:26N 56°39' E 012°51'0 0.1
2015-Jul-20 04:33N 56°39' E 012°51'8 6.4
2015-Jul-20 03:21N 56°40' E 012°38'7 8.3
2015-Jul-20 02:33N 56°45' E 012°29'8 8.2
2015-Jul-20 01:34N 56°51' E 012°19'  

Dump ship's entire track history